createdAt,value
2018-02-09T00:01:26.837Z,50.17
2018-02-09T00:03:55.174Z,54.70
2018-02-09T00:06:22.804Z,49.20
2018-02-09T00:08:50.389Z,46.53
2018-02-09T00:11:18.008Z,48.53
2018-02-09T00:13:45.612Z,48.67
2018-02-09T00:16:13.165Z,49.83
2018-02-09T00:18:40.728Z,52.60
2018-02-09T00:21:08.286Z,57.13
2018-02-09T00:23:35.848Z,55.43
2018-02-09T00:26:03.426Z,52.13
2018-02-09T00:28:31.092Z,52.53
2018-02-09T00:30:58.610Z,51.77
2018-02-09T00:33:26.933Z,49.77
2018-02-09T00:35:54.466Z,49.40
2018-02-09T00:38:22.028Z,46.20
2018-02-09T00:40:49.679Z,53.97
2018-02-09T00:43:17.253Z,49.73
2018-02-09T00:45:44.829Z,54.53
2018-02-09T00:48:12.382Z,52.17
2018-02-09T00:50:39.932Z,48.23
2018-02-09T00:53:07.459Z,47.70
2018-02-09T00:55:35.130Z,46.93
2018-02-09T00:58:02.699Z,49.83
2018-02-09T01:00:30.344Z,48.43
2018-02-09T01:02:57.871Z,46.87
2018-02-09T01:05:26.275Z,44.13
2018-02-09T01:07:54.577Z,46.43
2018-02-09T01:10:22.168Z,47.47
2018-02-09T01:12:49.729Z,46.30
2018-02-09T01:15:17.275Z,48.33
2018-02-09T01:17:44.927Z,47.47
2018-02-09T01:20:12.513Z,52.17
2018-02-09T01:22:40.340Z,49.00
2018-02-09T01:25:07.860Z,49.10
2018-02-09T01:27:35.471Z,48.17
2018-02-09T01:30:02.995Z,48.70
2018-02-09T01:32:30.569Z,48.73
2018-02-09T01:34:58.295Z,47.27
2018-02-09T01:37:26.049Z,47.97
2018-02-09T01:39:54.347Z,49.73
2018-02-09T01:42:22.641Z,47.07
2018-02-09T01:44:50.194Z,54.03
2018-02-09T01:47:17.768Z,51.60
2018-02-09T01:49:45.335Z,43.87
2018-02-09T01:52:13.684Z,50.53
2018-02-09T01:54:41.307Z,49.73
2018-02-09T01:57:08.932Z,47.90
2018-02-09T01:59:36.447Z,49.67
2018-02-09T02:02:04.762Z,46.73
2018-02-09T02:04:32.428Z,49.77
2018-02-09T02:06:59.983Z,47.70
2018-02-09T02:09:28.422Z,47.07
2018-02-09T02:11:55.960Z,46.27
2018-02-09T02:14:24.289Z,52.43
2018-02-09T02:16:51.902Z,44.53
2018-02-09T02:19:19.517Z,46.73
2018-02-09T02:21:47.520Z,44.83
2018-02-09T02:24:15.091Z,47.50
2018-02-09T02:26:42.712Z,44.17
2018-02-09T02:29:11.073Z,45.73
2018-02-09T02:31:38.640Z,45.60
2018-02-09T02:34:06.185Z,49.13
2018-02-09T02:36:33.765Z,44.23
2018-02-09T02:39:01.409Z,41.50
2018-02-09T02:41:28.953Z,48.00
2018-02-09T02:43:56.496Z,42.80
2018-02-09T02:46:24.062Z,43.90
2018-02-09T02:48:51.607Z,43.80
2018-02-09T02:51:19.141Z,42.53
2018-02-09T02:53:46.713Z,41.83
2018-02-09T02:56:14.229Z,44.13
2018-02-09T02:58:41.780Z,43.43
2018-02-09T03:01:10.257Z,42.27
2018-02-09T03:03:38.634Z,41.57
2018-02-09T03:06:06.996Z,40.47
2018-02-09T03:08:34.622Z,42.50
2018-02-09T03:11:02.164Z,42.03
2018-02-09T03:13:29.721Z,40.70
2018-02-09T03:15:57.271Z,40.80
2018-02-09T03:18:24.875Z,43.93
2018-02-09T03:20:52.431Z,42.03
2018-02-09T03:23:20.013Z,44.57
2018-02-09T03:25:47.547Z,42.90
2018-02-09T03:28:15.093Z,41.03
2018-02-09T03:30:43.402Z,41.73
2018-02-09T03:33:10.941Z,45.23
2018-02-09T03:35:38.464Z,39.40
2018-02-09T03:38:06.047Z,44.17
2018-02-09T03:40:33.723Z,43.53
2018-02-09T03:43:01.356Z,40.07
2018-02-09T03:45:29.669Z,44.00
2018-02-09T03:47:57.174Z,40.57
2018-02-09T03:50:24.732Z,40.27
2018-02-09T03:52:52.377Z,42.57
2018-02-09T03:55:19.905Z,40.90
2018-02-09T03:57:47.426Z,41.43
2018-02-09T04:00:14.950Z,40.77
2018-02-09T04:02:42.475Z,39.53
2018-02-09T04:05:10.032Z,39.90
2018-02-09T04:07:37.592Z,40.23
2018-02-09T04:10:05.992Z,41.90
2018-02-09T04:12:33.509Z,40.53
2018-02-09T04:15:01.070Z,42.50
2018-02-09T04:17:28.616Z,40.43
2018-02-09T04:19:56.174Z,40.20
2018-02-09T04:22:23.790Z,41.80
2018-02-09T04:24:51.446Z,42.67
2018-02-09T04:27:19.025Z,42.67
2018-02-09T04:29:46.578Z,41.97
2018-02-09T04:32:14.104Z,40.00
2018-02-09T04:34:42.421Z,36.80
2018-02-09T04:37:10.761Z,39.70
2018-02-09T04:39:38.287Z,44.03
2018-02-09T04:42:05.878Z,41.87
2018-02-09T04:44:33.432Z,41.60
2018-02-09T04:47:00.974Z,38.27
2018-02-09T04:49:28.579Z,37.63
2018-02-09T04:51:56.142Z,39.10
2018-02-09T04:54:24.436Z,39.10
2018-02-09T04:56:51.996Z,39.27
2018-02-09T04:59:20.288Z,42.13
2018-02-09T05:01:48.621Z,43.70
2018-02-09T05:04:16.154Z,42.10
2018-02-09T05:06:44.462Z,40.57
2018-02-09T05:09:12.041Z,40.43
2018-02-09T05:11:39.609Z,42.03
2018-02-09T05:14:07.139Z,40.07
2018-02-09T05:16:35.422Z,40.43
2018-02-09T05:19:02.968Z,41.63
2018-02-09T05:21:30.625Z,40.30
2018-02-09T05:23:58.225Z,45.20
2018-02-09T05:26:25.808Z,40.70
2018-02-09T05:28:54.160Z,40.73
2018-02-09T05:31:21.689Z,43.47
2018-02-09T05:33:49.225Z,40.07
2018-02-09T05:36:16.744Z,41.40
2018-02-09T05:38:45.065Z,43.77
2018-02-09T05:41:12.613Z,42.03
2018-02-09T05:43:40.948Z,41.20
2018-02-09T05:46:08.581Z,38.77
2018-02-09T05:48:36.103Z,41.63
2018-02-09T05:51:03.871Z,40.27
2018-02-09T05:53:31.420Z,38.13
2018-02-09T05:55:59.045Z,41.83
2018-02-09T05:58:26.696Z,44.73
2018-02-09T06:00:54.457Z,39.90
2018-02-09T06:03:21.977Z,38.37
2018-02-09T06:05:50.349Z,39.40
2018-02-09T06:08:17.889Z,37.67
2018-02-09T06:10:45.501Z,35.17
2018-02-09T06:13:13.175Z,37.13
2018-02-09T06:15:40.696Z,41.27
2018-02-09T06:18:08.340Z,39.23
2018-02-09T06:20:35.951Z,40.60
2018-02-09T06:23:03.517Z,38.17
2018-02-09T06:25:31.108Z,37.80
2018-02-09T06:27:59.096Z,36.93
2018-02-09T06:30:26.700Z,35.40
2018-02-09T06:32:55.280Z,32.97
2018-02-09T06:35:22.787Z,31.33
2018-02-09T06:37:50.352Z,36.57
2018-02-09T06:40:18.669Z,35.13
2018-02-09T06:42:46.284Z,35.83
2018-02-09T06:45:15.341Z,33.37
2018-02-09T06:47:42.931Z,31.63
2018-02-09T06:50:10.530Z,35.03
2018-02-09T06:52:38.056Z,35.37
2018-02-09T06:55:05.674Z,36.10
2018-02-09T06:57:33.176Z,33.23
2018-02-09T07:00:01.550Z,31.47
2018-02-09T07:02:29.175Z,33.27
2018-02-09T07:04:56.723Z,35.40
2018-02-09T07:07:24.245Z,34.33
2018-02-09T07:09:51.816Z,36.43
2018-02-09T07:12:19.389Z,33.70
2018-02-09T07:14:46.938Z,32.70
2018-02-09T07:17:14.455Z,33.67
2018-02-09T07:19:42.012Z,34.33
2018-02-09T07:22:10.408Z,33.13
2018-02-09T07:24:37.965Z,35.63
2018-02-09T07:27:05.666Z,30.20
2018-02-09T07:29:33.297Z,35.57
2018-02-09T07:32:00.836Z,34.00
2018-02-09T07:34:29.434Z,35.17
2018-02-09T07:36:56.995Z,34.13
2018-02-09T07:39:24.575Z,33.87
2018-02-09T07:41:53.036Z,33.43
2018-02-09T07:44:20.586Z,34.17
2018-02-09T07:46:48.143Z,33.13
2018-02-09T07:49:15.697Z,33.53
2018-02-09T07:51:43.227Z,35.33
2018-02-09T07:54:10.812Z,35.97
2018-02-09T07:56:38.376Z,35.03
2018-02-09T07:59:05.938Z,33.30
2018-02-09T08:01:33.484Z,33.33
2018-02-09T08:04:01.064Z,35.00
2018-02-09T08:06:28.583Z,34.00
2018-02-09T08:08:56.924Z,31.67
2018-02-09T08:11:24.458Z,34.43
2018-02-09T08:13:52.018Z,34.57
2018-02-09T08:16:20.321Z,33.70
2018-02-09T08:18:47.879Z,34.83
2018-02-09T08:21:16.186Z,34.03
2018-02-09T08:23:43.727Z,32.77
2018-02-09T08:26:11.253Z,33.50
2018-02-09T08:28:38.790Z,35.73
2018-02-09T08:31:06.363Z,34.20
2018-02-09T08:33:33.948Z,36.67
2018-02-09T08:36:01.563Z,31.40
2018-02-09T08:38:29.332Z,33.00
2018-02-09T08:40:56.925Z,33.10
2018-02-09T08:43:24.439Z,33.53
2018-02-09T08:45:52.043Z,32.83
2018-02-09T08:48:19.641Z,32.10
2018-02-09T08:50:47.168Z,31.67
2018-02-09T08:53:15.184Z,34.77
2018-02-09T08:55:42.756Z,32.87
2018-02-09T08:58:11.182Z,35.67
2018-02-09T09:00:39.533Z,31.83
2018-02-09T09:03:07.130Z,32.87
2018-02-09T09:05:35.470Z,37.20
2018-02-09T09:08:03.057Z,33.03
2018-02-09T09:10:30.600Z,33.03
2018-02-09T09:12:58.152Z,32.57
2018-02-09T09:15:26.601Z,32.73
2018-02-09T09:17:54.163Z,32.83
2018-02-09T09:20:21.665Z,33.80
2018-02-09T09:22:49.201Z,34.43
2018-02-09T09:25:16.870Z,30.40
2018-02-09T09:27:44.379Z,32.90
2018-02-09T09:30:12.006Z,35.23
2018-02-09T09:32:39.653Z,32.47
2018-02-09T09:35:07.215Z,35.37
2018-02-09T09:37:35.554Z,33.90
2018-02-09T09:40:03.125Z,34.77
2018-02-09T09:42:30.711Z,34.73
2018-02-09T09:44:58.235Z,32.53
2018-02-09T09:47:26.557Z,31.57
2018-02-09T09:49:54.146Z,33.47
2018-02-09T09:52:21.753Z,34.77
2018-02-09T09:54:49.313Z,32.17
2018-02-09T09:57:16.937Z,36.80
2018-02-09T09:59:44.456Z,32.97
2018-02-09T10:02:23.973Z,35.10
2018-02-09T10:04:51.510Z,33.77
2018-02-09T10:07:19.139Z,32.37
2018-02-09T10:09:46.667Z,32.27
2018-02-09T10:12:14.988Z,35.10
2018-02-09T10:14:42.510Z,33.07
2018-02-09T10:17:10.849Z,32.20
2018-02-09T10:19:38.503Z,34.37
2018-02-09T10:22:06.140Z,34.23
2018-02-09T10:24:33.657Z,33.03
2018-02-09T10:27:01.224Z,32.03
2018-02-09T10:29:28.801Z,32.77
2018-02-09T10:31:56.375Z,31.87
2018-02-09T10:34:23.937Z,32.53
2018-02-09T10:36:51.506Z,32.17
2018-02-09T10:39:19.136Z,33.73
2018-02-09T10:41:46.736Z,33.60
2018-02-09T10:44:14.306Z,31.37
2018-02-09T10:46:42.760Z,31.67
2018-02-09T10:49:10.413Z,32.57
2018-02-09T10:51:38.049Z,30.47
2018-02-09T10:54:06.383Z,32.00
2018-02-09T10:56:33.891Z,32.70
2018-02-09T10:59:01.482Z,30.83
2018-02-09T11:01:35.584Z,31.63
2018-02-09T11:04:03.249Z,30.17
2018-02-09T11:06:30.782Z,29.93
2018-02-09T11:08:58.351Z,30.73
2018-02-09T11:11:26.743Z,29.10
2018-02-09T11:13:54.297Z,30.27
2018-02-09T11:16:21.907Z,28.87
2018-02-09T11:18:49.553Z,31.17
2018-02-09T11:21:17.179Z,29.03
2018-02-09T11:23:44.768Z,31.47
2018-02-09T11:26:13.116Z,29.93
2018-02-09T11:28:40.707Z,29.57
2018-02-09T11:31:08.240Z,31.20
2018-02-09T11:33:35.836Z,30.37
2018-02-09T11:36:03.372Z,33.23
2018-02-09T11:38:30.896Z,33.43
2018-02-09T11:40:58.431Z,32.37
2018-02-09T11:43:26.067Z,31.50
2018-02-09T11:45:53.609Z,31.30
2018-02-09T11:48:21.154Z,31.30
2018-02-09T11:50:48.676Z,29.97
2018-02-09T11:53:16.992Z,32.40
2018-02-09T11:55:44.601Z,33.37
2018-02-09T11:58:12.188Z,31.73
2018-02-09T12:00:39.711Z,31.20
2018-02-09T12:03:07.311Z,31.10
2018-02-09T12:05:34.903Z,31.63
2018-02-09T12:08:02.473Z,30.17
2018-02-09T12:10:30.022Z,30.00
2018-02-09T12:12:57.638Z,30.87
2018-02-09T12:15:25.251Z,31.13
2018-02-09T12:17:52.828Z,29.87
2018-02-09T12:20:20.412Z,30.63
2018-02-09T12:22:47.965Z,30.63
2018-02-09T12:25:15.527Z,34.70
2018-02-09T12:27:43.087Z,30.93
2018-02-09T12:30:11.380Z,32.37
2018-02-09T12:32:39.707Z,31.17
2018-02-09T12:35:07.236Z,29.27
2018-02-09T12:37:35.569Z,29.03
2018-02-09T12:40:03.192Z,28.43
2018-02-09T12:42:30.764Z,28.50
2018-02-09T12:44:58.391Z,30.50
2018-02-09T12:47:25.925Z,31.80
2018-02-09T12:49:54.229Z,30.03
2018-02-09T12:52:21.744Z,32.43
2018-02-09T12:54:49.292Z,29.17
2018-02-09T12:57:16.804Z,34.23
2018-02-09T12:59:44.383Z,31.10
2018-02-09T13:02:11.940Z,32.17
2018-02-09T13:04:39.478Z,31.40
2018-02-09T13:07:07.055Z,32.80
2018-02-09T13:09:34.595Z,31.70
2018-02-09T13:12:02.930Z,30.13
2018-02-09T13:14:42.445Z,30.20
2018-02-09T13:17:10.129Z,32.97
2018-02-09T13:19:37.701Z,30.73
2018-02-09T13:22:05.369Z,31.33
2018-02-09T13:24:33.004Z,29.70
2018-02-09T13:27:01.427Z,29.30
2018-02-09T13:29:28.955Z,27.70
2018-02-09T13:31:56.512Z,31.17
2018-02-09T13:34:24.080Z,28.00
2018-02-09T13:40:06.239Z,29.13
2018-02-09T13:42:33.714Z,30.30
2018-02-09T13:45:01.177Z,25.57
2018-02-09T13:47:28.634Z,30.63
2018-02-09T13:49:56.102Z,29.80
2018-02-09T13:52:23.580Z,29.87
2018-02-09T13:54:51.352Z,29.70
2018-02-09T13:57:18.822Z,28.30
2018-02-09T13:59:46.290Z,26.07
2018-02-09T14:02:13.766Z,25.43
2018-02-09T14:04:41.235Z,26.37
2018-02-09T14:07:08.704Z,24.37
2018-02-09T14:09:36.192Z,22.43
2018-02-09T14:12:03.661Z,23.53
2018-02-09T14:14:31.130Z,24.80
2018-02-09T14:16:58.607Z,27.20
2018-02-09T14:19:26.075Z,25.77
2018-02-09T14:21:53.585Z,27.73
2018-02-09T14:24:21.012Z,27.33
2018-02-09T14:26:48.490Z,28.80
2018-02-09T14:29:15.946Z,26.37
2018-02-09T14:31:43.405Z,29.37
2018-02-09T14:34:10.885Z,24.60
2018-02-09T14:36:38.346Z,26.23
2018-02-09T14:39:05.814Z,27.10
2018-02-09T14:41:33.275Z,26.47
2018-02-09T14:44:00.751Z,26.93
2018-02-09T14:46:28.221Z,25.60
2018-02-09T14:48:55.700Z,28.20
2018-02-09T14:51:23.164Z,27.67
2018-02-09T14:53:50.634Z,25.17
2018-02-09T14:56:18.102Z,28.07
2018-02-09T14:58:45.571Z,26.33
2018-02-09T15:01:13.058Z,24.90
2018-02-09T15:03:40.548Z,25.80
2018-02-09T15:06:08.010Z,26.13
2018-02-09T15:08:35.496Z,28.00
2018-02-09T15:11:02.965Z,27.17
2018-02-09T15:13:30.448Z,25.57
2018-02-09T15:15:58.718Z,26.37
2018-02-09T15:18:26.222Z,26.83
2018-02-09T15:20:54.449Z,26.10
2018-02-09T15:23:21.930Z,25.93
2018-02-09T15:25:49.406Z,25.10
2018-02-09T15:28:16.871Z,24.43
2018-02-09T15:30:44.346Z,25.47
2018-02-09T15:33:11.812Z,24.30
2018-02-09T15:35:39.288Z,24.80
2018-02-09T15:38:06.759Z,25.80
2018-02-09T15:40:34.249Z,25.47
2018-02-09T15:43:02.489Z,26.97
2018-02-09T15:45:29.962Z,27.40
2018-02-09T15:47:57.447Z,26.70
2018-02-09T15:50:24.916Z,27.13
2018-02-09T15:52:52.390Z,25.93
2018-02-09T15:55:19.868Z,29.10
2018-02-09T15:57:47.331Z,25.90
2018-02-09T16:00:14.814Z,28.27
2018-02-09T16:02:42.284Z,25.57
2018-02-09T16:05:09.758Z,25.13
2018-02-09T16:07:37.230Z,25.57
2018-02-09T16:10:04.882Z,25.97
2018-02-09T16:12:32.379Z,26.43
2018-02-09T16:14:59.856Z,24.67
2018-02-09T16:17:28.104Z,25.87
2018-02-09T16:19:55.589Z,25.97
2018-02-09T16:22:23.050Z,26.70
2018-02-09T16:24:50.534Z,25.93
2018-02-09T16:27:17.993Z,25.47
2018-02-09T16:29:45.461Z,25.90
2018-02-09T16:32:12.944Z,26.57
2018-02-09T16:34:40.419Z,25.63
2018-02-09T16:37:07.907Z,25.77
2018-02-09T16:39:36.148Z,26.87
2018-02-09T16:42:03.623Z,26.23
2018-02-09T16:44:31.090Z,28.37
2018-02-09T16:46:58.576Z,26.47
2018-02-09T16:49:26.039Z,27.97
2018-02-09T16:51:53.519Z,30.30
2018-02-09T16:54:20.992Z,27.93
2018-02-09T16:56:48.467Z,29.33
2018-02-09T16:59:15.927Z,30.90
2018-02-09T17:01:43.403Z,30.83
2018-02-09T17:04:10.877Z,29.40
2018-02-09T17:06:38.363Z,29.13
2018-02-09T17:09:06.596Z,27.77
2018-02-09T17:11:34.075Z,28.83
2018-02-09T17:14:01.553Z,27.63
2018-02-09T17:16:29.027Z,29.53
2018-02-09T17:18:56.509Z,28.70
2018-02-09T17:21:23.987Z,28.50
2018-02-09T17:23:51.458Z,32.40
2018-02-09T17:26:18.944Z,30.97
2018-02-09T17:28:47.184Z,32.63
2018-02-09T17:31:14.688Z,30.20
2018-02-09T17:33:42.151Z,29.30
2018-02-09T17:36:09.631Z,29.57
2018-02-09T17:38:37.122Z,30.17
2018-02-09T17:41:05.353Z,29.43
2018-02-09T17:43:32.835Z,30.23
2018-02-09T17:46:00.308Z,32.00
2018-02-09T17:48:27.784Z,32.13
2018-02-09T17:50:55.362Z,30.57
2018-02-09T17:53:22.918Z,31.00
2018-02-09T17:55:50.464Z,30.53
2018-02-09T17:58:18.032Z,31.57
2018-02-09T18:00:45.608Z,27.37
2018-02-09T18:03:13.304Z,29.90
2018-02-09T18:05:40.851Z,30.10
2018-02-09T18:08:08.404Z,27.87
2018-02-09T18:10:36.029Z,26.50
2018-02-09T18:13:03.623Z,27.23
2018-02-09T18:15:31.189Z,27.13
2018-02-09T18:17:58.794Z,28.40
2018-02-09T18:20:27.123Z,29.10
2018-02-09T18:22:54.661Z,29.57
2018-02-09T18:25:22.295Z,27.07
2018-02-09T18:27:49.880Z,29.93
2018-02-09T18:30:18.229Z,28.77
2018-02-09T18:32:45.828Z,29.30
2018-02-09T18:35:13.464Z,28.93
2018-02-09T18:37:41.029Z,30.17
2018-02-09T18:40:08.566Z,29.40
2018-02-09T18:42:36.884Z,30.57
2018-02-09T18:45:04.478Z,30.47
2018-02-09T18:47:32.018Z,31.73
2018-02-09T18:49:59.591Z,28.07
2018-02-09T18:52:27.201Z,35.50
2018-02-09T18:54:54.762Z,29.20
2018-02-09T18:57:22.376Z,32.90
2018-02-09T18:59:50.003Z,31.23
2018-02-09T19:02:17.531Z,29.40
2018-02-09T19:04:45.937Z,32.00
2018-02-09T19:07:14.240Z,30.27
2018-02-09T19:09:41.876Z,33.10
2018-02-09T19:12:10.998Z,34.00
2018-02-09T19:14:39.384Z,32.90
2018-02-09T19:17:06.938Z,33.53
2018-02-09T19:19:34.571Z,31.50
2018-02-09T19:22:02.137Z,33.83
2018-02-09T19:24:29.709Z,32.73
2018-02-09T19:26:57.233Z,30.53
2018-02-09T19:29:24.828Z,31.80
2018-02-09T19:31:53.195Z,31.73
2018-02-09T19:34:20.741Z,31.20
2018-02-09T19:36:48.269Z,31.73
2018-02-09T19:39:16.644Z,30.00
2018-02-09T19:41:44.207Z,32.10
2018-02-09T19:44:11.766Z,35.27
2018-02-09T19:46:39.291Z,32.03
2018-02-09T19:49:06.853Z,31.83
2018-02-09T19:51:35.276Z,34.67
2018-02-09T19:54:02.861Z,29.77
2018-02-09T19:56:30.427Z,30.57
2018-02-09T19:58:58.008Z,30.17
2018-02-09T20:01:25.568Z,30.57
2018-02-09T20:03:53.109Z,28.77
2018-02-09T20:06:20.696Z,31.10
2018-02-09T20:08:48.216Z,32.57
2018-02-09T20:11:15.824Z,31.63
2018-02-09T20:13:43.367Z,30.87
2018-02-09T20:16:10.896Z,31.87
2018-02-09T20:18:38.435Z,32.47
2018-02-09T20:21:05.999Z,32.73
2018-02-09T20:23:34.391Z,34.93
2018-02-09T20:26:02.368Z,31.53
2018-02-09T20:28:30.661Z,32.53
2018-02-09T20:30:58.993Z,32.37
2018-02-09T20:33:26.578Z,32.53
2018-02-09T20:35:54.170Z,31.70
2018-02-09T20:38:21.709Z,30.30
2018-02-09T20:40:49.271Z,33.00
2018-02-09T20:43:16.865Z,31.70
2018-02-09T20:45:44.466Z,33.43
2018-02-09T20:48:11.972Z,32.73
2018-02-09T20:50:39.519Z,32.80
2018-02-09T20:53:07.826Z,32.10
2018-02-09T20:55:37.156Z,30.33
2018-02-09T20:58:05.679Z,31.47
2018-02-09T21:00:33.284Z,32.77
2018-02-09T21:03:00.852Z,32.13
2018-02-09T21:05:29.151Z,31.60
2018-02-09T21:07:57.467Z,31.03
2018-02-09T21:10:25.065Z,32.90
2018-02-09T21:12:52.687Z,33.03
2018-02-09T21:15:21.053Z,31.57
2018-02-09T21:17:48.582Z,32.03
2018-02-09T21:20:16.136Z,32.50
2018-02-09T21:22:43.659Z,32.73
2018-02-09T21:25:11.171Z,33.23
2018-02-09T21:27:39.536Z,35.17
2018-02-09T21:30:07.132Z,32.83
2018-02-09T21:32:35.432Z,34.43
2018-02-09T21:35:03.729Z,33.50
2018-02-09T21:37:31.332Z,33.87
2018-02-09T21:39:59.780Z,33.83
2018-02-09T21:42:28.112Z,37.63
2018-02-09T21:44:55.711Z,40.93
2018-02-09T21:47:23.280Z,36.30
2018-02-09T21:49:50.836Z,33.97
2018-02-09T21:52:18.377Z,38.03
2018-02-09T21:54:45.988Z,34.17
2018-02-09T21:57:13.549Z,31.80
2018-02-09T21:59:41.137Z,33.83
2018-02-09T22:02:08.731Z,32.83
2018-02-09T22:04:36.464Z,32.97
2018-02-09T22:07:04.080Z,31.53
2018-02-09T22:09:31.651Z,32.17
2018-02-09T22:11:59.315Z,32.43
2018-02-09T22:14:26.819Z,31.60
2018-02-09T22:16:55.111Z,29.80
2018-02-09T22:19:23.456Z,31.33
2018-02-09T22:21:50.975Z,32.10
2018-02-09T22:24:19.279Z,31.27
2018-02-09T22:26:46.897Z,31.20
2018-02-09T22:29:14.503Z,28.57
2018-02-09T22:31:42.819Z,29.73
2018-02-09T22:34:10.355Z,28.03
2018-02-09T22:36:37.897Z,30.97
2018-02-09T22:39:05.460Z,30.30
2018-02-09T22:41:33.153Z,30.40
2018-02-09T22:44:00.790Z,31.23
2018-02-09T22:49:01.301Z,29.73
2018-02-09T22:51:28.921Z,31.20
2018-02-09T22:53:56.504Z,30.10
2018-02-09T22:56:24.095Z,28.77
2018-02-09T22:58:51.612Z,30.40
2018-02-09T23:01:19.938Z,29.60
2018-02-09T23:03:47.663Z,31.13
2018-02-09T23:06:15.283Z,31.10
2018-02-09T23:08:42.811Z,31.67
2018-02-09T23:11:10.364Z,32.60
2018-02-09T23:13:37.937Z,31.90
2018-02-09T23:16:05.476Z,33.17
2018-02-09T23:18:33.120Z,30.73
2018-02-09T23:21:01.420Z,34.73
2018-02-09T23:23:28.950Z,32.93
2018-02-09T23:25:56.527Z,35.43
2018-02-09T23:28:24.056Z,35.67
2018-02-09T23:30:51.612Z,33.30
2018-02-09T23:33:19.187Z,32.97
2018-02-09T23:35:46.793Z,35.90
2018-02-09T23:38:14.339Z,34.53
2018-02-09T23:40:41.882Z,34.60
2018-02-09T23:43:10.174Z,33.60
2018-02-09T23:45:38.465Z,33.53
2018-02-09T23:48:06.853Z,32.63
2018-02-09T23:50:35.241Z,35.03
2018-02-09T23:53:03.643Z,31.83
2018-02-09T23:55:31.304Z,34.33
2018-02-09T23:57:59.595Z,34.80
